sensor_id;sensor_type;location;lat;lon;timestamp;P1;P2;P0
27143;PMS1003;14672;50.250;8.312;2024-02-16T00:01:00;11.00;11.00;4.00
27143;PMS1003;14672;50.250;8.312;2024-02-16T00:03:29;11.00;11.00;4.50
27143;PMS1003;14672;50.250;8.312;2024-02-16T00:05:56;12.75;11.75;4.00
27143;PMS1003;14672;50.250;8.312;2024-02-16T00:08:21;9.00;9.00;3.00
27143;PMS1003;14672;50.250;8.312;2024-02-16T00:10:47;14.00;14.00;7.67
27143;PMS1003;14672;50.250;8.312;2024-02-16T00:13:13;14.25;13.25;4.50
27143;PMS1003;14672;50.250;8.312;2024-02-16T00:15:40;12.00;11.75;4.00
27143;PMS1003;14672;50.250;8.312;2024-02-16T00:18:06;9.67;9.00;4.00
27143;PMS1003;14672;50.250;8.312;2024-02-16T00:20:32;15.25;12.25;4.50
27143;PMS1003;14672;50.250;8.312;2024-02-16T00:22:59;11.00;11.00;4.00
27143;PMS1003;14672;50.250;8.312;2024-02-16T00:25:27;14.25;14.00;6.00
27143;PMS1003;14672;50.250;8.312;2024-02-16T00:27:53;12.00;12.00;6.00
27143;PMS1003;14672;50.250;8.312;2024-02-16T00:30:19;18.33;12.67;6.33
27143;PMS1003;14672;50.250;8.312;2024-02-16T00:32:45;11.00;11.00;4.00
27143;PMS1003;14672;50.250;8.312;2024-02-16T00:35:11;12.67;12.33;6.00
27143;PMS1003;14672;50.250;8.312;2024-02-16T00:37:37;15.25;14.50;6.00
27143;PMS1003;14672;50.250;8.312;2024-02-16T00:40:03;12.00;12.00;6.00
27143;PMS1003;14672;50.250;8.312;2024-02-16T00:42:31;14.00;12.25;4.50
27143;PMS1003;14672;50.250;8.312;2024-02-16T00:44:57;15.75;12.75;5.50
27143;PMS1003;14672;50.250;8.312;2024-02-16T00:47:25;17.25;14.00;4.50
27143;PMS1003;14672;50.250;8.312;2024-02-16T00:49:54;14.00;13.00;6.00
27143;PMS1003;14672;50.250;8.312;2024-02-16T00:52:21;14.25;13.75;4.00
27143;PMS1003;14672;50.250;8.312;2024-02-16T00:54:48;16.75;15.75;6.00
27143;PMS1003;14672;50.250;8.312;2024-02-16T00:57:14;14.75;13.75;6.00
27143;PMS1003;14672;50.250;8.312;2024-02-16T00:59:41;16.75;16.75;7.75
27143;PMS1003;14672;50.250;8.312;2024-02-16T01:02:07;17.67;15.33;6.00
27143;PMS1003;14672;50.250;8.312;2024-02-16T01:04:34;14.00;14.00;6.25
27143;PMS1003;14672;50.250;8.312;2024-02-16T01:07:00;15.33;15.00;8.00
27143;PMS1003;14672;50.250;8.312;2024-02-16T01:09:26;16.00;16.00;8.00
27143;PMS1003;14672;50.250;8.312;2024-02-16T01:11:52;16.33;16.00;7.67
27143;PMS1003;14672;50.250;8.312;2024-02-16T01:14:18;19.25;15.00;8.00
27143;PMS1003;14672;50.250;8.312;2024-02-16T01:16:44;12.25;12.00;6.00
27143;PMS1003;14672;50.250;8.312;2024-02-16T01:19:11;16.25;15.50;6.00
27143;PMS1003;14672;50.250;8.312;2024-02-16T01:21:37;15.25;14.50;6.00
27143;PMS1003;14672;50.250;8.312;2024-02-16T01:24:04;15.25;14.00;6.25
27143;PMS1003;14672;50.250;8.312;2024-02-16T01:26:31;15.25;13.75;6.25
27143;PMS1003;14672;50.250;8.312;2024-02-16T01:28:57;16.25;15.00;7.00
27143;PMS1003;14672;50.250;8.312;2024-02-16T01:31:24;16.50;16.50;7.75
27143;PMS1003;14672;50.250;8.312;2024-02-16T01:33:49;17.67;16.00;6.00
27143;PMS1003;14672;50.250;8.312;2024-02-16T01:36:15;21.00;16.67;6.00
27143;PMS1003;14672;50.250;8.312;2024-02-16T01:38:41;17.00;16.33;8.00
27143;PMS1003;14672;50.250;8.312;2024-02-16T01:41:09;17.00;17.00;7.75
27143;PMS1003;14672;50.250;8.312;2024-02-16T01:43:36;16.75;15.00;6.00
27143;PMS1003;14672;50.250;8.312;2024-02-16T01:46:01;16.00;14.67;6.00
27143;PMS1003;14672;50.250;8.312;2024-02-16T01:48:27;15.33;13.33;7.33
27143;PMS1003;14672;50.250;8.312;2024-02-16T01:50:53;17.50;16.50;7.00
27143;PMS1003;14672;50.250;8.312;2024-02-16T01:53:20;19.75;16.00;7.50
27143;PMS1003;14672;50.250;8.312;2024-02-16T01:55:46;15.50;14.00;8.50
27143;PMS1003;14672;50.250;8.312;2024-02-16T01:58:13;14.00;14.00;6.50
27143;PMS1003;14672;50.250;8.312;2024-02-16T02:00:39;15.75;15.75;8.25
27143;PMS1003;14672;50.250;8.312;2024-02-16T02:03:06;14.50;14.25;8.00
27143;PMS1003;14672;50.250;8.312;2024-02-16T02:05:32;15.00;15.00;6.00
27143;PMS1003;14672;50.250;8.312;2024-02-16T02:07:58;16.67;16.00;7.00
27143;PMS1003;14672;50.250;8.312;2024-02-16T02:10:24;12.75;12.75;6.00
27143;PMS1003;14672;50.250;8.312;2024-02-16T02:12:50;17.67;15.67;6.00
27143;PMS1003;14672;50.250;8.312;2024-02-16T02:15:15;19.67;18.33;8.00
27143;PMS1003;14672;50.250;8.312;2024-02-16T02:17:41;17.67;14.67;6.00
27143;PMS1003;14672;50.250;8.312;2024-02-16T02:20:07;16.00;14.00;8.00
27143;PMS1003;14672;50.250;8.312;2024-02-16T02:22:39;15.75;15.25;7.75
27143;PMS1003;14672;50.250;8.312;2024-02-16T02:25:05;16.67;16.67;6.00
27143;PMS1003;14672;50.250;8.312;2024-02-16T02:27:31;15.75;15.50;7.75
27143;PMS1003;14672;50.250;8.312;2024-02-16T02:29:56;20.33;17.67;7.00
27143;PMS1003;14672;50.250;8.312;2024-02-16T02:32:23;17.25;17.25;8.75
27143;PMS1003;14672;50.250;8.312;2024-02-16T02:34:49;16.00;14.75;6.00
27143;PMS1003;14672;50.250;8.312;2024-02-16T02:37:15;19.00;14.00;6.00
27143;PMS1003;14672;50.250;8.312;2024-02-16T02:39:41;15.67;15.67;7.00
27143;PMS1003;14672;50.250;8.312;2024-02-16T02:42:06;16.33;14.00;6.00
27143;PMS1003;14672;50.250;8.312;2024-02-16T02:44:33;15.75;14.00;6.25
27143;PMS1003;14672;50.250;8.312;2024-02-16T02:46:59;18.00;17.00;8.00
27143;PMS1003;14672;50.250;8.312;2024-02-16T02:49:25;16.33;16.00;8.00
27143;PMS1003;14672;50.250;8.312;2024-02-16T02:51:50;19.67;17.33;8.00
27143;PMS1003;14672;50.250;8.312;2024-02-16T02:54:16;12.33;12.33;6.00
27143;PMS1003;14672;50.250;8.312;2024-02-16T02:56:42;13.00;12.33;6.00
27143;PMS1003;14672;50.250;8.312;2024-02-16T02:59:09;16.00;15.50;6.00
27143;PMS1003;14672;50.250;8.312;2024-02-16T03:01:41;15.00;15.00;7.75
27143;PMS1003;14672;50.250;8.312;2024-02-16T03:04:07;16.33;15.00;6.00
27143;PMS1003;14672;50.250;8.312;2024-02-16T03:06:34;13.75;13.50;5.50
27143;PMS1003;14672;50.250;8.312;2024-02-16T03:09:00;14.00;14.00;6.00
27143;PMS1003;14672;50.250;8.312;2024-02-16T03:11:25;16.00;16.00;7.67
27143;PMS1003;14672;50.250;8.312;2024-02-16T03:13:51;16.33;15.67;6.33
27143;PMS1003;14672;50.250;8.312;2024-02-16T03:16:17;15.67;14.00;8.00
27143;PMS1003;14672;50.250;8.312;2024-02-16T03:18:46;15.25;15.25;6.25
27143;PMS1003;14672;50.250;8.312;2024-02-16T03:21:14;19.67;16.00;6.33
27143;PMS1003;14672;50.250;8.312;2024-02-16T03:23:43;16.25;15.75;7.50
27143;PMS1003;14672;50.250;8.312;2024-02-16T03:26:15;13.33;13.00;6.00
27143;PMS1003;14672;50.250;8.312;2024-02-16T03:28:43;16.25;15.50;7.75
27143;PMS1003;14672;50.250;8.312;2024-02-16T03:31:18;17.00;16.75;7.75
27143;PMS1003;14672;50.250;8.312;2024-02-16T03:33:50;16.25;14.25;7.50
27143;PMS1003;14672;50.250;8.312;2024-02-16T03:36:18;18.00;17.00;8.25
27143;PMS1003;14672;50.250;8.312;2024-02-16T03:38:45;17.25;17.25;9.00
27143;PMS1003;14672;50.250;8.312;2024-02-16T03:41:17;18.50;18.00;7.75
27143;PMS1003;14672;50.250;8.312;2024-02-16T03:43:48;18.75;17.00;8.75
27143;PMS1003;14672;50.250;8.312;2024-02-16T03:46:14;14.50;14.50;7.75
27143;PMS1003;14672;50.250;8.312;2024-02-16T03:48:41;17.25;15.75;6.00
27143;PMS1003;14672;50.250;8.312;2024-02-16T03:51:07;16.50;15.75;7.75
27143;PMS1003;14672;50.250;8.312;2024-02-16T03:53:33;14.00;14.00;6.25
27143;PMS1003;14672;50.250;8.312;2024-02-16T03:55:59;18.00;15.50;7.75
27143;PMS1003;14672;50.250;8.312;2024-02-16T03:58:25;19.67;18.00;6.33
27143;PMS1003;14672;50.250;8.312;2024-02-16T04:00:51;23.00;18.50;8.50
27143;PMS1003;14672;50.250;8.312;2024-02-16T04:03:20;20.00;18.00;8.25
27143;PMS1003;14672;50.250;8.312;2024-02-16T04:05:45;16.67;16.67;9.00
27143;PMS1003;14672;50.250;8.312;2024-02-16T04:08:14;17.00;16.75;8.25
27143;PMS1003;14672;50.250;8.312;2024-02-16T04:10:40;18.00;16.67;8.00
27143;PMS1003;14672;50.250;8.312;2024-02-16T04:13:06;19.00;16.33;7.00
27143;PMS1003;14672;50.250;8.312;2024-02-16T04:15:32;21.33;19.00;9.00
27143;PMS1003;14672;50.250;8.312;2024-02-16T04:17:58;17.33;17.33;8.00
27143;PMS1003;14672;50.250;8.312;2024-02-16T04:20:23;19.33;17.33;8.33
27143;PMS1003;14672;50.250;8.312;2024-02-16T04:22:49;26.00;19.00;11.00
27143;PMS1003;14672;50.250;8.312;2024-02-16T04:25:15;20.33;17.00;8.67
27143;PMS1003;14672;50.250;8.312;2024-02-16T04:27:41;22.00;22.00;11.00
27143;PMS1003;14672;50.250;8.312;2024-02-16T04:30:06;14.00;14.00;8.00
27143;PMS1003;14672;50.250;8.312;2024-02-16T04:32:33;19.00;17.75;9.00
27143;PMS1003;14672;50.250;8.312;2024-02-16T04:34:59;15.00;14.67;8.00
27143;PMS1003;14672;50.250;8.312;2024-02-16T04:37:25;21.67;20.00;8.67
27143;PMS1003;14672;50.250;8.312;2024-02-16T04:39:51;15.75;15.75;7.75
27143;PMS1003;14672;50.250;8.312;2024-02-16T04:42:17;19.25;18.75;8.25
27143;PMS1003;14672;50.250;8.312;2024-02-16T04:44:43;21.00;21.00;8.50
27143;PMS1003;14672;50.250;8.312;2024-02-16T04:47:09;17.00;16.00;9.00
27143;PMS1003;14672;50.250;8.312;2024-02-16T04:49:35;18.00;18.00;8.67
27143;PMS1003;14672;50.250;8.312;2024-02-16T04:52:01;21.00;19.00;8.50
27143;PMS1003;14672;50.250;8.312;2024-02-16T04:54:28;19.50;17.75;8.00
27143;PMS1003;14672;50.250;8.312;2024-02-16T04:56:54;19.50;17.25;8.75
27143;PMS1003;14672;50.250;8.312;2024-02-16T04:59:20;17.00;15.00;7.00
27143;PMS1003;14672;50.250;8.312;2024-02-16T05:01:46;20.00;20.00;8.00
27143;PMS1003;14672;50.250;8.312;2024-02-16T05:04:12;18.00;15.50;7.00
27143;PMS1003;14672;50.250;8.312;2024-02-16T05:06:45;14.50;14.00;7.00
27143;PMS1003;14672;50.250;8.312;2024-02-16T05:09:15;16.75;16.25;6.75
27143;PMS1003;14672;50.250;8.312;2024-02-16T05:11:42;20.50;16.50;9.00
27143;PMS1003;14672;50.250;8.312;2024-02-16T05:14:11;17.50;16.50;7.25
27143;PMS1003;14672;50.250;8.312;2024-02-16T05:16:45;16.75;15.50;6.25
27143;PMS1003;14672;50.250;8.312;2024-02-16T05:19:12;15.25;14.00;6.00
27143;PMS1003;14672;50.250;8.312;2024-02-16T05:21:38;16.75;14.00;7.50
27143;PMS1003;14672;50.250;8.312;2024-02-16T05:24:04;17.00;15.33;6.00
27143;PMS1003;14672;50.250;8.312;2024-02-16T05:26:30;13.50;13.00;6.00
27143;PMS1003;14672;50.250;8.312;2024-02-16T05:28:56;21.00;17.00;8.00
27143;PMS1003;14672;50.250;8.312;2024-02-16T05:31:22;17.00;16.00;7.00
27143;PMS1003;14672;50.250;8.312;2024-02-16T05:33:49;14.00;14.00;7.00
27143;PMS1003;14672;50.250;8.312;2024-02-16T05:36:20;17.75;17.75;6.75
27143;PMS1003;14672;50.250;8.312;2024-02-16T05:38:50;19.75;17.00;8.25
27143;PMS1003;14672;50.250;8.312;2024-02-16T05:41:17;16.00;15.25;7.00
27143;PMS1003;14672;50.250;8.312;2024-02-16T05:43:43;11.50;11.00;6.00
27143;PMS1003;14672;50.250;8.312;2024-02-16T05:46:16;15.50;15.50;7.75
27143;PMS1003;14672;50.250;8.312;2024-02-16T05:48:42;19.50;17.75;8.00
27143;PMS1003;14672;50.250;8.312;2024-02-16T05:51:09;19.00;18.25;7.50
27143;PMS1003;14672;50.250;8.312;2024-02-16T05:53:38;16.00;16.00;8.00
27143;PMS1003;14672;50.250;8.312;2024-02-16T05:56:05;15.25;15.25;8.00
27143;PMS1003;14672;50.250;8.312;2024-02-16T05:58:32;15.25;15.25;8.00
27143;PMS1003;14672;50.250;8.312;2024-02-16T06:00:58;17.50;16.00;8.50
27143;PMS1003;14672;50.250;8.312;2024-02-16T06:03:24;20.00;18.67;8.00
27143;PMS1003;14672;50.250;8.312;2024-02-16T06:05:51;21.75;15.50;7.50
27143;PMS1003;14672;50.250;8.312;2024-02-16T06:08:17;15.33;15.33;8.00
27143;PMS1003;14672;50.250;8.312;2024-02-16T06:10:44;18.00;15.75;7.50
27143;PMS1003;14672;50.250;8.312;2024-02-16T06:13:18;23.75;20.75;8.50
27143;PMS1003;14672;50.250;8.312;2024-02-16T06:15:46;18.25;16.50;8.75
27143;PMS1003;14672;50.250;8.312;2024-02-16T06:18:12;19.00;16.50;8.50
27143;PMS1003;14672;50.250;8.312;2024-02-16T06:20:38;19.33;17.33;8.00
27143;PMS1003;14672;50.250;8.312;2024-02-16T06:23:03;18.00;16.00;8.00
27143;PMS1003;14672;50.250;8.312;2024-02-16T06:25:29;18.00;16.00;8.00
27143;PMS1003;14672;50.250;8.312;2024-02-16T06:27:55;14.33;14.33;8.00
27143;PMS1003;14672;50.250;8.312;2024-02-16T06:30:24;16.75;16.50;6.00
27143;PMS1003;14672;50.250;8.312;2024-02-16T06:32:50;17.00;16.75;8.00
27143;PMS1003;14672;50.250;8.312;2024-02-16T06:35:16;16.67;15.67;8.00
27143;PMS1003;14672;50.250;8.312;2024-02-16T06:37:41;16.67;16.67;8.67
27143;PMS1003;14672;50.250;8.312;2024-02-16T06:40:07;14.67;14.67;6.67
27143;PMS1003;14672;50.250;8.312;2024-02-16T06:42:36;18.00;15.50;8.25
27143;PMS1003;14672;50.250;8.312;2024-02-16T06:45:06;19.00;18.25;8.00
27143;PMS1003;14672;50.250;8.312;2024-02-16T06:47:32;17.00;17.00;8.00
27143;PMS1003;14672;50.250;8.312;2024-02-16T06:49:58;18.00;16.00;8.33
27143;PMS1003;14672;50.250;8.312;2024-02-16T06:52:23;21.00;18.00;8.00
27143;PMS1003;14672;50.250;8.312;2024-02-16T06:54:49;16.67;16.00;8.00
27143;PMS1003;14672;50.250;8.312;2024-02-16T06:57:16;18.00;16.50;8.00
27143;PMS1003;14672;50.250;8.312;2024-02-16T06:59:42;23.00;18.00;9.00
27143;PMS1003;14672;50.250;8.312;2024-02-16T07:02:08;16.33;15.67;9.00
27143;PMS1003;14672;50.250;8.312;2024-02-16T07:04:35;16.25;14.75;7.00
27143;PMS1003;14672;50.250;8.312;2024-02-16T07:07:01;18.00;15.67;8.00
27143;PMS1003;14672;50.250;8.312;2024-02-16T07:09:29;19.75;17.75;8.50
27143;PMS1003;14672;50.250;8.312;2024-02-16T07:11:54;21.67;19.33;8.67
27143;PMS1003;14672;50.250;8.312;2024-02-16T07:14:20;21.67;21.00;8.00
27143;PMS1003;14672;50.250;8.312;2024-02-16T07:16:49;19.50;15.50;8.75
27143;PMS1003;14672;50.250;8.312;2024-02-16T07:19:15;19.67;19.33;9.00
27143;PMS1003;14672;50.250;8.312;2024-02-16T07:21:40;18.00;17.00;8.33
27143;PMS1003;14672;50.250;8.312;2024-02-16T07:24:06;17.67;17.67;8.67
27143;PMS1003;14672;50.250;8.312;2024-02-16T07:26:33;17.00;16.00;8.75
27143;PMS1003;14672;50.250;8.312;2024-02-16T07:29:00;19.50;19.50;9.25
27143;PMS1003;14672;50.250;8.312;2024-02-16T07:31:31;20.50;19.00;10.50
27143;PMS1003;14672;50.250;8.312;2024-02-16T07:33:59;16.75;16.75;8.25
27143;PMS1003;14672;50.250;8.312;2024-02-16T07:36:26;21.00;20.50;11.75
27143;PMS1003;14672;50.250;8.312;2024-02-16T07:38:51;26.00;24.67;12.67
27143;PMS1003;14672;50.250;8.312;2024-02-16T07:41:17;23.67;22.00;9.33
27143;PMS1003;14672;50.250;8.312;2024-02-16T07:43:43;22.67;20.33;10.33
27143;PMS1003;14672;50.250;8.312;2024-02-16T07:46:09;20.67;20.67;9.33
27143;PMS1003;14672;50.250;8.312;2024-02-16T07:48:34;24.67;22.67;11.67
27143;PMS1003;14672;50.250;8.312;2024-02-16T07:51:00;20.67;19.33;11.00
27143;PMS1003;14672;50.250;8.312;2024-02-16T07:53:28;23.50;21.75;11.00
27143;PMS1003;14672;50.250;8.312;2024-02-16T07:55:55;22.00;20.50;11.00
27143;PMS1003;14672;50.250;8.312;2024-02-16T07:58:21;19.25;19.00;11.00
27143;PMS1003;14672;50.250;8.312;2024-02-16T08:00:47;29.00;23.25;12.75
27143;PMS1003;14672;50.250;8.312;2024-02-16T08:03:13;25.67;24.00;12.00
27143;PMS1003;14672;50.250;8.312;2024-02-16T08:05:39;19.25;17.50;9.50
27143;PMS1003;14672;50.250;8.312;2024-02-16T08:08:05;23.00;22.00;11.67
27143;PMS1003;14672;50.250;8.312;2024-02-16T08:10:31;20.50;20.50;11.00
27143;PMS1003;14672;50.250;8.312;2024-02-16T08:12:57;24.75;21.25;11.00
27143;PMS1003;14672;50.250;8.312;2024-02-16T08:15:23;23.67;20.33;8.00
27143;PMS1003;14672;50.250;8.312;2024-02-16T08:17:49;19.33;18.33;9.00
27143;PMS1003;14672;50.250;8.312;2024-02-16T08:20:18;19.00;17.75;10.00
27143;PMS1003;14672;50.250;8.312;2024-02-16T08:22:44;20.50;20.00;10.00
27143;PMS1003;14672;50.250;8.312;2024-02-16T08:25:09;18.00;17.33;9.00
27143;PMS1003;14672;50.250;8.312;2024-02-16T08:27:35;19.00;18.00;8.00
27143;PMS1003;14672;50.250;8.312;2024-02-16T08:30:06;18.75;18.25;8.25
27143;PMS1003;14672;50.250;8.312;2024-02-16T08:32:34;17.50;17.00;9.00
27143;PMS1003;14672;50.250;8.312;2024-02-16T08:35:00;20.75;20.25;10.50
27143;PMS1003;14672;50.250;8.312;2024-02-16T08:37:25;15.00;14.67;8.33
27143;PMS1003;14672;50.250;8.312;2024-02-16T08:39:51;18.33;17.33;9.00
27143;PMS1003;14672;50.250;8.312;2024-02-16T08:42:18;16.25;16.25;7.75
27143;PMS1003;14672;50.250;8.312;2024-02-16T08:44:43;20.67;19.00;8.67
27143;PMS1003;14672;50.250;8.312;2024-02-16T08:47:09;17.00;16.33;8.67
27143;PMS1003;14672;50.250;8.312;2024-02-16T08:49:35;16.33;16.00;9.00
27143;PMS1003;14672;50.250;8.312;2024-02-16T08:52:02;18.25;16.25;7.75
27143;PMS1003;14672;50.250;8.312;2024-02-16T08:54:29;14.25;14.25;8.50
27143;PMS1003;14672;50.250;8.312;2024-02-16T08:56:54;17.00;17.00;7.00
27143;PMS1003;14672;50.250;8.312;2024-02-16T08:59:20;15.75;14.25;6.50
27143;PMS1003;14672;50.250;8.312;2024-02-16T09:01:46;15.00;14.67;8.33
27143;PMS1003;14672;50.250;8.312;2024-02-16T09:04:12;14.33;13.00;5.33
27143;PMS1003;14672;50.250;8.312;2024-02-16T09:06:38;15.67;14.00;8.00
27143;PMS1003;14672;50.250;8.312;2024-02-16T09:09:04;17.00;16.67;8.00
27143;PMS1003;14672;50.250;8.312;2024-02-16T09:11:32;17.00;17.00;9.00
27143;PMS1003;14672;50.250;8.312;2024-02-16T09:13:57;16.00;14.67;8.00
27143;PMS1003;14672;50.250;8.312;2024-02-16T09:16:23;14.00;13.33;5.33
27143;PMS1003;14672;50.250;8.312;2024-02-16T09:18:49;14.67;14.00;8.00
27143;PMS1003;14672;50.250;8.312;2024-02-16T09:21:15;14.00;14.00;8.00
27143;PMS1003;14672;50.250;8.312;2024-02-16T09:23:40;16.00;15.33;6.00
27143;PMS1003;14672;50.250;8.312;2024-02-16T09:26:07;11.50;11.50;5.50
27143;PMS1003;14672;50.250;8.312;2024-02-16T09:28:39;14.00;14.00;7.75
27143;PMS1003;14672;50.250;8.312;2024-02-16T09:31:06;14.00;14.00;7.00
27143;PMS1003;14672;50.250;8.312;2024-02-16T09:33:33;16.00;14.25;8.25
27143;PMS1003;14672;50.250;8.312;2024-02-16T09:35:59;15.50;15.00;6.50
27143;PMS1003;14672;50.250;8.312;2024-02-16T09:38:24;13.33;12.00;6.00
27143;PMS1003;14672;50.250;8.312;2024-02-16T09:40:50;16.00;16.00;8.00
27143;PMS1003;14672;50.250;8.312;2024-02-16T09:43:26;15.25;15.25;7.50
27143;PMS1003;14672;50.250;8.312;2024-02-16T09:45:55;14.50;14.50;7.75
27143;PMS1003;14672;50.250;8.312;2024-02-16T09:48:25;13.75;12.75;6.00
27143;PMS1003;14672;50.250;8.312;2024-02-16T09:50:56;18.50;15.75;7.50
27143;PMS1003;14672;50.250;8.312;2024-02-16T09:53:24;15.50;14.50;8.50
27143;PMS1003;14672;50.250;8.312;2024-02-16T09:55:53;14.00;14.00;7.00
27143;PMS1003;14672;50.250;8.312;2024-02-16T09:58:19;14.50;14.25;6.50
27143;PMS1003;14672;50.250;8.312;2024-02-16T10:00:49;13.25;13.25;6.00
27143;PMS1003;14672;50.250;8.312;2024-02-16T10:05:51;17.00;16.50;6.50
27143;PMS1003;14672;50.250;8.312;2024-02-16T10:08:20;17.75;14.50;7.00
27143;PMS1003;14672;50.250;8.312;2024-02-16T10:10:46;14.67;14.00;7.00
27143;PMS1003;14672;50.250;8.312;2024-02-16T10:13:12;14.50;14.00;6.00
27143;PMS1003;14672;50.250;8.312;2024-02-16T10:15:38;12.00;12.00;4.00
27143;PMS1003;14672;50.250;8.312;2024-02-16T10:18:07;15.75;13.75;5.50
27143;PMS1003;14672;50.250;8.312;2024-02-16T10:20:33;16.33;15.33;6.67
27143;PMS1003;14672;50.250;8.312;2024-02-16T10:23:10;12.50;12.50;6.00
27143;PMS1003;14672;50.250;8.312;2024-02-16T10:25:38;13.00;13.00;7.00
27143;PMS1003;14672;50.250;8.312;2024-02-16T10:28:08;12.00;12.00;6.00
27143;PMS1003;14672;50.250;8.312;2024-02-16T10:30:38;14.50;13.50;6.00
27143;PMS1003;14672;50.250;8.312;2024-02-16T10:33:08;12.00;10.75;4.00
27143;PMS1003;14672;50.250;8.312;2024-02-16T10:35:35;15.00;12.00;5.00
27143;PMS1003;14672;50.250;8.312;2024-02-16T10:38:02;12.00;11.75;5.50
27143;PMS1003;14672;50.250;8.312;2024-02-16T10:40:38;11.25;11.25;6.00
27143;PMS1003;14672;50.250;8.312;2024-02-16T10:43:09;14.25;13.75;6.75
27143;PMS1003;14672;50.250;8.312;2024-02-16T10:45:36;15.00;14.25;6.00
27143;PMS1003;14672;50.250;8.312;2024-02-16T10:48:03;12.00;12.00;6.00
27143;PMS1003;14672;50.250;8.312;2024-02-16T10:50:31;15.00;14.25;6.00
27143;PMS1003;14672;50.250;8.312;2024-02-16T10:53:00;16.75;16.25;7.00
27143;PMS1003;14672;50.250;8.312;2024-02-16T10:55:36;14.50;12.75;6.00
27143;PMS1003;14672;50.250;8.312;2024-02-16T10:58:02;14.67;14.33;6.00
27143;PMS1003;14672;50.250;8.312;2024-02-16T11:00:28;16.75;13.75;6.75
27143;PMS1003;14672;50.250;8.312;2024-02-16T11:02:54;11.67;11.67;6.00
27143;PMS1003;14672;50.250;8.312;2024-02-16T11:08:20;12.50;12.25;5.75
27143;PMS1003;14672;50.250;8.312;2024-02-16T11:10:53;15.75;15.25;7.00
27143;PMS1003;14672;50.250;8.312;2024-02-16T11:13:24;14.25;12.25;6.50
27143;PMS1003;14672;50.250;8.312;2024-02-16T11:16:08;15.00;14.50;7.00
27143;PMS1003;14672;50.250;8.312;2024-02-16T11:18:41;14.75;14.75;8.50
27143;PMS1003;14672;50.250;8.312;2024-02-16T11:21:12;16.50;16.50;6.75
27143;PMS1003;14672;50.250;8.312;2024-02-16T11:23:40;15.50;15.25;7.00
27143;PMS1003;14672;50.250;8.312;2024-02-16T11:26:10;15.75;14.25;6.75
27143;PMS1003;14672;50.250;8.312;2024-02-16T11:28:41;15.00;13.75;6.00
27143;PMS1003;14672;50.250;8.312;2024-02-16T11:31:08;14.25;14.25;7.00
27143;PMS1003;14672;50.250;8.312;2024-02-16T11:33:34;16.50;15.00;6.00
27143;PMS1003;14672;50.250;8.312;2024-02-16T11:36:01;16.50;16.00;7.00
27143;PMS1003;14672;50.250;8.312;2024-02-16T11:38:32;17.75;15.50;6.75
27143;PMS1003;14672;50.250;8.312;2024-02-16T11:41:05;14.00;14.00;7.00
27143;PMS1003;14672;50.250;8.312;2024-02-16T11:43:34;16.75;15.00;7.00
27143;PMS1003;14672;50.250;8.312;2024-02-16T11:46:21;15.00;15.00;7.00
27143;PMS1003;14672;50.250;8.312;2024-02-16T11:48:46;16.50;15.75;9.00
27143;PMS1003;14672;50.250;8.312;2024-02-16T11:51:14;16.75;15.25;7.00
27143;PMS1003;14672;50.250;8.312;2024-02-16T11:53:42;19.00;16.25;7.50
27143;PMS1003;14672;50.250;8.312;2024-02-16T11:56:09;18.25;17.25;7.00
27143;PMS1003;14672;50.250;8.312;2024-02-16T11:58:35;18.67;16.00;7.67
27143;PMS1003;14672;50.250;8.312;2024-02-16T12:01:01;17.75;17.00;9.00
27143;PMS1003;14672;50.250;8.312;2024-02-16T12:03:28;17.50;16.75;7.50
27143;PMS1003;14672;50.250;8.312;2024-02-16T12:05:55;17.00;15.33;9.00
27143;PMS1003;14672;50.250;8.312;2024-02-16T12:08:23;15.00;13.50;7.00
27143;PMS1003;14672;50.250;8.312;2024-02-16T12:10:56;13.75;13.75;6.00
27143;PMS1003;14672;50.250;8.312;2024-02-16T12:13:22;15.67;15.00;7.00
27143;PMS1003;14672;50.250;8.312;2024-02-16T12:15:49;17.33;16.00;7.00
27143;PMS1003;14672;50.250;8.312;2024-02-16T12:18:26;14.50;13.75;6.25
27143;PMS1003;14672;50.250;8.312;2024-02-16T12:20:57;18.25;18.00;9.00
27143;PMS1003;14672;50.250;8.312;2024-02-16T12:23:24;17.50;17.25;7.00
27143;PMS1003;14672;50.250;8.312;2024-02-16T12:25:50;14.67;13.33;7.67
27143;PMS1003;14672;50.250;8.312;2024-02-16T12:28:16;15.00;13.67;7.00
27143;PMS1003;14672;50.250;8.312;2024-02-16T12:30:41;15.00;14.67;7.00
27143;PMS1003;14672;50.250;8.312;2024-02-16T12:33:07;19.00;17.00;8.33
27143;PMS1003;14672;50.250;8.312;2024-02-16T12:35:33;17.33;15.67;7.67
27143;PMS1003;14672;50.250;8.312;2024-02-16T12:37:59;15.25;15.00;7.00
27143;PMS1003;14672;50.250;8.312;2024-02-16T12:40:25;15.75;15.00;6.50
27143;PMS1003;14672;50.250;8.312;2024-02-16T12:42:51;16.25;16.25;8.50
27143;PMS1003;14672;50.250;8.312;2024-02-16T12:45:17;15.00;14.33;7.00
27143;PMS1003;14672;50.250;8.312;2024-02-16T12:47:47;16.00;16.00;7.00
27143;PMS1003;14672;50.250;8.312;2024-02-16T12:50:12;13.67;13.00;7.00
27143;PMS1003;14672;50.250;8.312;2024-02-16T12:52:38;15.33;15.33;8.67
27143;PMS1003;14672;50.250;8.312;2024-02-16T12:55:07;14.00;13.33;6.00
27143;PMS1003;14672;50.250;8.312;2024-02-16T12:57:35;13.00;13.00;6.00
27143;PMS1003;14672;50.250;8.312;2024-02-16T13:00:01;14.75;14.50;7.25
27143;PMS1003;14672;50.250;8.312;2024-02-16T13:02:28;13.25;12.75;6.25
27143;PMS1003;14672;50.250;8.312;2024-02-16T13:04:54;15.25;13.00;5.75
27143;PMS1003;14672;50.250;8.312;2024-02-16T13:07:20;15.67;15.00;6.00
27143;PMS1003;14672;50.250;8.312;2024-02-16T13:09:46;13.00;12.75;5.75
27143;PMS1003;14672;50.250;8.312;2024-02-16T13:12:12;18.33;17.33;7.00
27143;PMS1003;14672;50.250;8.312;2024-02-16T13:14:37;18.33;16.00;7.00
27143;PMS1003;14672;50.250;8.312;2024-02-16T13:17:03;16.00;15.00;7.00
27143;PMS1003;14672;50.250;8.312;2024-02-16T13:19:29;13.25;13.00;5.75
27143;PMS1003;14672;50.250;8.312;2024-02-16T13:21:55;20.33;18.67;9.00
27143;PMS1003;14672;50.250;8.312;2024-02-16T13:24:21;22.00;22.00;9.00
27143;PMS1003;14672;50.250;8.312;2024-02-16T13:26:47;16.33;16.00;9.00
27143;PMS1003;14672;50.250;8.312;2024-02-16T13:29:13;19.33;18.67;7.00
27143;PMS1003;14672;50.250;8.312;2024-02-16T13:31:38;19.33;19.00;9.00
27143;PMS1003;14672;50.250;8.312;2024-02-16T13:34:05;19.25;17.75;8.75
27143;PMS1003;14672;50.250;8.312;2024-02-16T13:36:31;21.33;19.67;9.00
27143;PMS1003;14672;50.250;8.312;2024-02-16T13:38:57;23.67;19.00;10.00
27143;PMS1003;14672;50.250;8.312;2024-02-16T13:41:23;18.67;17.67;10.00
27143;PMS1003;14672;50.250;8.312;2024-02-16T13:43:50;20.75;20.75;11.75
27143;PMS1003;14672;50.250;8.312;2024-02-16T13:46:16;18.25;18.25;10.00
27143;PMS1003;14672;50.250;8.312;2024-02-16T13:48:42;19.50;17.75;9.00
27143;PMS1003;14672;50.250;8.312;2024-02-16T13:51:08;21.33;21.00;11.00
27143;PMS1003;14672;50.250;8.312;2024-02-16T13:53:37;26.25;23.00;10.50
27143;PMS1003;14672;50.250;8.312;2024-02-16T13:56:03;17.50;16.00;8.75
27143;PMS1003;14672;50.250;8.312;2024-02-16T13:58:31;20.75;20.50;10.00
27143;PMS1003;14672;50.250;8.312;2024-02-16T14:00:58;21.50;18.75;10.00